sensor_id;sensor_type;location;lat;lon;timestamp;P1;durP1;ratioP1;P2;durP2;ratioP2
84997;SDS011;75314;48.120;11.534;2024-03-08T00:00:05;15.17;;;11.07;;
84997;SDS011;75314;48.120;11.534;2024-03-08T00:02:31;16.10;;;11.87;;
84997;SDS011;75314;48.120;11.534;2024-03-08T00:04:56;18.00;;;12.53;;
84997;SDS011;75314;48.120;11.534;2024-03-08T00:07:21;15.37;;;11.77;;
84997;SDS011;75314;48.120;11.534;2024-03-08T00:09:46;14.73;;;11.30;;
84997;SDS011;75314;48.120;11.534;2024-03-08T00:12:12;14.63;;;11.57;;
84997;SDS011;75314;48.120;11.534;2024-03-08T00:14:37;16.93;;;12.00;;
84997;SDS011;75314;48.120;11.534;2024-03-08T00:17:02;15.63;;;11.50;;
84997;SDS011;75314;48.120;11.534;2024-03-08T00:19:27;15.13;;;11.83;;
84997;SDS011;75314;48.120;11.534;2024-03-08T00:21:52;16.07;;;11.63;;
84997;SDS011;75314;48.120;11.534;2024-03-08T00:24:18;14.33;;;11.30;;
84997;SDS011;75314;48.120;11.534;2024-03-08T00:26:43;15.53;;;11.17;;
84997;SDS011;75314;48.120;11.534;2024-03-08T00:29:08;15.60;;;11.83;;
84997;SDS011;75314;48.120;11.534;2024-03-08T00:31:33;15.90;;;11.70;;
84997;SDS011;75314;48.120;11.534;2024-03-08T00:33:58;16.03;;;11.47;;
84997;SDS011;75314;48.120;11.534;2024-03-08T00:36:24;15.00;;;11.07;;
84997;SDS011;75314;48.120;11.534;2024-03-08T00:38:49;15.53;;;11.77;;
84997;SDS011;75314;48.120;11.534;2024-03-08T00:41:14;15.30;;;11.57;;
84997;SDS011;75314;48.120;11.534;2024-03-08T00:43:39;15.60;;;11.27;;
84997;SDS011;75314;48.120;11.534;2024-03-08T00:46:04;15.77;;;11.60;;
84997;SDS011;75314;48.120;11.534;2024-03-08T00:48:29;15.67;;;11.63;;
84997;SDS011;75314;48.120;11.534;2024-03-08T00:50:55;14.67;;;11.00;;
84997;SDS011;75314;48.120;11.534;2024-03-08T00:53:20;14.33;;;11.07;;
84997;SDS011;75314;48.120;11.534;2024-03-08T00:55:45;15.73;;;12.00;;
84997;SDS011;75314;48.120;11.534;2024-03-08T00:58:10;16.40;;;12.40;;
84997;SDS011;75314;48.120;11.534;2024-03-08T01:00:35;15.37;;;12.10;;
84997;SDS011;75314;48.120;11.534;2024-03-08T01:03:01;16.07;;;12.07;;
84997;SDS011;75314;48.120;11.534;2024-03-08T01:05:26;27.40;;;19.70;;
84997;SDS011;75314;48.120;11.534;2024-03-08T01:07:51;29.90;;;20.97;;
84997;SDS011;75314;48.120;11.534;2024-03-08T01:10:16;22.40;;;16.33;;
84997;SDS011;75314;48.120;11.534;2024-03-08T01:12:41;19.30;;;14.20;;
84997;SDS011;75314;48.120;11.534;2024-03-08T01:15:07;15.50;;;12.17;;
84997;SDS011;75314;48.120;11.534;2024-03-08T01:17:32;18.43;;;12.60;;
84997;SDS011;75314;48.120;11.534;2024-03-08T01:19:57;14.90;;;11.67;;
84997;SDS011;75314;48.120;11.534;2024-03-08T01:22:22;16.73;;;12.20;;
84997;SDS011;75314;48.120;11.534;2024-03-08T01:24:48;16.60;;;12.40;;
84997;SDS011;75314;48.120;11.534;2024-03-08T01:27:13;17.13;;;12.23;;
84997;SDS011;75314;48.120;11.534;2024-03-08T01:29:38;17.90;;;12.73;;
84997;SDS011;75314;48.120;11.534;2024-03-08T01:32:04;18.13;;;12.57;;
84997;SDS011;75314;48.120;11.534;2024-03-08T01:34:29;15.80;;;12.13;;
84997;SDS011;75314;48.120;11.534;2024-03-08T01:36:54;17.83;;;12.37;;
84997;SDS011;75314;48.120;11.534;2024-03-08T01:39:19;18.93;;;13.37;;
84997;SDS011;75314;48.120;11.534;2024-03-08T01:41:45;18.10;;;13.33;;
84997;SDS011;75314;48.120;11.534;2024-03-08T01:44:10;17.77;;;13.03;;
84997;SDS011;75314;48.120;11.534;2024-03-08T01:46:35;17.30;;;13.10;;
84997;SDS011;75314;48.120;11.534;2024-03-08T01:49:01;16.50;;;12.33;;
84997;SDS011;75314;48.120;11.534;2024-03-08T01:51:27;17.87;;;13.20;;
84997;SDS011;75314;48.120;11.534;2024-03-08T01:53:53;17.77;;;12.50;;
84997;SDS011;75314;48.120;11.534;2024-03-08T01:56:18;16.53;;;12.13;;
84997;SDS011;75314;48.120;11.534;2024-03-08T01:58:44;15.93;;;12.60;;
84997;SDS011;75314;48.120;11.534;2024-03-08T02:01:10;16.57;;;12.50;;
84997;SDS011;75314;48.120;11.534;2024-03-08T02:03:36;18.00;;;12.57;;
84997;SDS011;75314;48.120;11.534;2024-03-08T02:06:01;16.80;;;12.57;;
84997;SDS011;75314;48.120;11.534;2024-03-08T02:08:26;17.53;;;13.17;;
84997;SDS011;75314;48.120;11.534;2024-03-08T02:10:51;17.43;;;13.33;;
84997;SDS011;75314;48.120;11.534;2024-03-08T02:13:17;18.50;;;12.73;;
84997;SDS011;75314;48.120;11.534;2024-03-08T02:15:55;17.47;;;13.33;;
84997;SDS011;75314;48.120;11.534;2024-03-08T02:18:21;19.73;;;14.20;;
84997;SDS011;75314;48.120;11.534;2024-03-08T02:20:49;17.30;;;12.83;;
84997;SDS011;75314;48.120;11.534;2024-03-08T02:23:14;18.97;;;13.20;;
84997;SDS011;75314;48.120;11.534;2024-03-08T02:25:40;16.07;;;12.33;;
84997;SDS011;75314;48.120;11.534;2024-03-08T02:28:05;18.10;;;13.67;;
84997;SDS011;75314;48.120;11.534;2024-03-08T02:30:30;18.33;;;13.33;;
84997;SDS011;75314;48.120;11.534;2024-03-08T02:32:55;20.10;;;13.57;;
84997;SDS011;75314;48.120;11.534;2024-03-08T02:35:21;17.73;;;12.97;;
84997;SDS011;75314;48.120;11.534;2024-03-08T02:37:46;19.13;;;13.37;;
84997;SDS011;75314;48.120;11.534;2024-03-08T02:40:11;17.53;;;13.67;;
84997;SDS011;75314;48.120;11.534;2024-03-08T02:42:36;19.03;;;13.63;;
84997;SDS011;75314;48.120;11.534;2024-03-08T02:45:02;18.70;;;13.30;;
84997;SDS011;75314;48.120;11.534;2024-03-08T02:47:27;19.67;;;13.97;;
84997;SDS011;75314;48.120;11.534;2024-03-08T02:49:52;22.07;;;14.50;;
84997;SDS011;75314;48.120;11.534;2024-03-08T02:52:17;22.77;;;13.97;;
84997;SDS011;75314;48.120;11.534;2024-03-08T02:54:43;18.23;;;13.80;;
84997;SDS011;75314;48.120;11.534;2024-03-08T02:57:08;19.60;;;13.97;;
84997;SDS011;75314;48.120;11.534;2024-03-08T02:59:33;21.37;;;14.87;;
84997;SDS011;75314;48.120;11.534;2024-03-08T03:01:58;17.43;;;12.90;;
84997;SDS011;75314;48.120;11.534;2024-03-08T03:04:23;19.77;;;13.73;;
84997;SDS011;75314;48.120;11.534;2024-03-08T03:06:48;18.73;;;13.50;;
84997;SDS011;75314;48.120;11.534;2024-03-08T03:09:14;18.53;;;13.40;;
84997;SDS011;75314;48.120;11.534;2024-03-08T03:11:39;22.80;;;15.87;;
84997;SDS011;75314;48.120;11.534;2024-03-08T03:14:04;19.63;;;14.73;;
84997;SDS011;75314;48.120;11.534;2024-03-08T03:16:29;19.83;;;14.47;;
84997;SDS011;75314;48.120;11.534;2024-03-08T03:18:54;19.57;;;13.73;;
84997;SDS011;75314;48.120;11.534;2024-03-08T03:21:19;20.07;;;14.50;;
84997;SDS011;75314;48.120;11.534;2024-03-08T03:23:45;18.70;;;13.70;;
84997;SDS011;75314;48.120;11.534;2024-03-08T03:26:10;19.97;;;14.37;;
84997;SDS011;75314;48.120;11.534;2024-03-08T03:28:35;19.27;;;14.17;;
84997;SDS011;75314;48.120;11.534;2024-03-08T03:31:00;19.70;;;14.20;;
84997;SDS011;75314;48.120;11.534;2024-03-08T03:33:25;20.00;;;14.60;;
84997;SDS011;75314;48.120;11.534;2024-03-08T03:35:51;22.80;;;15.27;;
84997;SDS011;75314;48.120;11.534;2024-03-08T03:38:16;23.33;;;16.27;;
84997;SDS011;75314;48.120;11.534;2024-03-08T03:40:41;20.40;;;14.70;;
84997;SDS011;75314;48.120;11.534;2024-03-08T03:43:07;25.00;;;16.23;;
84997;SDS011;75314;48.120;11.534;2024-03-08T03:45:32;22.00;;;15.43;;
84997;SDS011;75314;48.120;11.534;2024-03-08T03:47:57;20.03;;;14.50;;
84997;SDS011;75314;48.120;11.534;2024-03-08T03:50:22;21.10;;;15.07;;
84997;SDS011;75314;48.120;11.534;2024-03-08T03:52:47;22.20;;;15.70;;
84997;SDS011;75314;48.120;11.534;2024-03-08T03:55:13;21.73;;;15.07;;
84997;SDS011;75314;48.120;11.534;2024-03-08T03:57:39;19.50;;;14.60;;
84997;SDS011;75314;48.120;11.534;2024-03-08T04:00:05;19.20;;;13.70;;
84997;SDS011;75314;48.120;11.534;2024-03-08T04:02:31;19.33;;;14.10;;
84997;SDS011;75314;48.120;11.534;2024-03-08T04:04:56;22.77;;;15.53;;
84997;SDS011;75314;48.120;11.534;2024-03-08T04:07:21;22.17;;;15.23;;
84997;SDS011;75314;48.120;11.534;2024-03-08T04:09:47;22.43;;;15.33;;
84997;SDS011;75314;48.120;11.534;2024-03-08T04:12:12;20.87;;;14.87;;
84997;SDS011;75314;48.120;11.534;2024-03-08T04:14:38;23.30;;;15.87;;
84997;SDS011;75314;48.120;11.534;2024-03-08T04:17:05;23.13;;;15.93;;
84997;SDS011;75314;48.120;11.534;2024-03-08T04:19:30;21.00;;;15.37;;
84997;SDS011;75314;48.120;11.534;2024-03-08T04:21:55;19.90;;;14.80;;
84997;SDS011;75314;48.120;11.534;2024-03-08T04:24:20;22.37;;;16.40;;
84997;SDS011;75314;48.120;11.534;2024-03-08T04:26:46;21.27;;;15.50;;
84997;SDS011;75314;48.120;11.534;2024-03-08T04:29:11;24.20;;;16.53;;
84997;SDS011;75314;48.120;11.534;2024-03-08T04:31:36;22.90;;;16.53;;
84997;SDS011;75314;48.120;11.534;2024-03-08T04:34:02;21.17;;;15.40;;
84997;SDS011;75314;48.120;11.534;2024-03-08T04:36:27;21.43;;;15.97;;
84997;SDS011;75314;48.120;11.534;2024-03-08T04:38:52;21.07;;;15.77;;
84997;SDS011;75314;48.120;11.534;2024-03-08T04:41:17;22.30;;;16.30;;
84997;SDS011;75314;48.120;11.534;2024-03-08T04:43:43;21.87;;;15.67;;
84997;SDS011;75314;48.120;11.534;2024-03-08T04:46:08;23.70;;;16.30;;
84997;SDS011;75314;48.120;11.534;2024-03-08T04:48:33;21.77;;;16.23;;
84997;SDS011;75314;48.120;11.534;2024-03-08T04:50:58;24.27;;;16.27;;
84997;SDS011;75314;48.120;11.534;2024-03-08T04:53:23;23.00;;;16.80;;
84997;SDS011;75314;48.120;11.534;2024-03-08T04:55:49;23.27;;;16.93;;
84997;SDS011;75314;48.120;11.534;2024-03-08T04:58:14;21.93;;;16.17;;
84997;SDS011;75314;48.120;11.534;2024-03-08T05:00:39;24.20;;;16.63;;
84997;SDS011;75314;48.120;11.534;2024-03-08T05:03:04;25.03;;;18.03;;
84997;SDS011;75314;48.120;11.534;2024-03-08T05:05:30;25.63;;;17.00;;
84997;SDS011;75314;48.120;11.534;2024-03-08T05:07:55;24.13;;;17.73;;
84997;SDS011;75314;48.120;11.534;2024-03-08T05:10:20;24.33;;;17.10;;
84997;SDS011;75314;48.120;11.534;2024-03-08T05:12:45;25.70;;;17.03;;
84997;SDS011;75314;48.120;11.534;2024-03-08T05:15:11;24.37;;;17.30;;
84997;SDS011;75314;48.120;11.534;2024-03-08T05:17:36;22.83;;;17.27;;
84997;SDS011;75314;48.120;11.534;2024-03-08T05:20:01;24.47;;;17.23;;
84997;SDS011;75314;48.120;11.534;2024-03-08T05:22:27;24.50;;;17.17;;
84997;SDS011;75314;48.120;11.534;2024-03-08T05:24:52;25.27;;;18.37;;
84997;SDS011;75314;48.120;11.534;2024-03-08T05:27:17;29.40;;;18.90;;
84997;SDS011;75314;48.120;11.534;2024-03-08T05:29:42;27.27;;;18.23;;
84997;SDS011;75314;48.120;11.534;2024-03-08T05:32:08;26.07;;;18.20;;
84997;SDS011;75314;48.120;11.534;2024-03-08T05:34:33;27.00;;;17.97;;
84997;SDS011;75314;48.120;11.534;2024-03-08T05:36:58;25.20;;;17.80;;
84997;SDS011;75314;48.120;11.534;2024-03-08T05:39:23;23.17;;;16.87;;
84997;SDS011;75314;48.120;11.534;2024-03-08T05:41:49;24.63;;;17.37;;
84997;SDS011;75314;48.120;11.534;2024-03-08T05:44:14;22.80;;;16.23;;
84997;SDS011;75314;48.120;11.534;2024-03-08T05:46:39;22.13;;;16.47;;
84997;SDS011;75314;48.120;11.534;2024-03-08T05:49:05;22.70;;;16.97;;
84997;SDS011;75314;48.120;11.534;2024-03-08T05:51:34;24.80;;;17.63;;
84997;SDS011;75314;48.120;11.534;2024-03-08T05:54:03;22.90;;;16.87;;
84997;SDS011;75314;48.120;11.534;2024-03-08T05:56:29;23.63;;;16.70;;
84997;SDS011;75314;48.120;11.534;2024-03-08T05:58:54;25.57;;;17.43;;
84997;SDS011;75314;48.120;11.534;2024-03-08T06:01:19;22.00;;;15.73;;
84997;SDS011;75314;48.120;11.534;2024-03-08T06:03:45;24.07;;;16.80;;
84997;SDS011;75314;48.120;11.534;2024-03-08T06:06:13;23.20;;;17.30;;
84997;SDS011;75314;48.120;11.534;2024-03-08T06:08:38;22.63;;;16.43;;
84997;SDS011;75314;48.120;11.534;2024-03-08T06:11:04;24.33;;;15.83;;
84997;SDS011;75314;48.120;11.534;2024-03-08T06:13:29;21.80;;;15.30;;
84997;SDS011;75314;48.120;11.534;2024-03-08T06:15:54;21.43;;;15.40;;
84997;SDS011;75314;48.120;11.534;2024-03-08T06:18:19;22.63;;;15.20;;
84997;SDS011;75314;48.120;11.534;2024-03-08T06:20:45;25.97;;;17.17;;
84997;SDS011;75314;48.120;11.534;2024-03-08T06:23:10;23.13;;;16.07;;
84997;SDS011;75314;48.120;11.534;2024-03-08T06:25:35;21.60;;;15.00;;
84997;SDS011;75314;48.120;11.534;2024-03-08T06:28:00;21.87;;;14.87;;
84997;SDS011;75314;48.120;11.534;2024-03-08T06:30:25;23.00;;;15.93;;
84997;SDS011;75314;48.120;11.534;2024-03-08T06:32:51;20.83;;;14.40;;
84997;SDS011;75314;48.120;11.534;2024-03-08T06:35:16;23.43;;;16.20;;
84997;SDS011;75314;48.120;11.534;2024-03-08T06:37:41;22.10;;;15.57;;
84997;SDS011;75314;48.120;11.534;2024-03-08T06:40:06;20.27;;;14.73;;
84997;SDS011;75314;48.120;11.534;2024-03-08T06:42:32;24.00;;;15.73;;
84997;SDS011;75314;48.120;11.534;2024-03-08T06:44:57;19.70;;;15.00;;
84997;SDS011;75314;48.120;11.534;2024-03-08T06:47:22;20.60;;;15.43;;
84997;SDS011;75314;48.120;11.534;2024-03-08T06:49:47;21.53;;;15.43;;
84997;SDS011;75314;48.120;11.534;2024-03-08T06:52:13;20.57;;;15.27;;
84997;SDS011;75314;48.120;11.534;2024-03-08T06:54:38;23.47;;;16.63;;
84997;SDS011;75314;48.120;11.534;2024-03-08T06:57:03;23.90;;;16.60;;
84997;SDS011;75314;48.120;11.534;2024-03-08T06:59:29;22.13;;;16.30;;
84997;SDS011;75314;48.120;11.534;2024-03-08T07:01:54;21.20;;;14.70;;
84997;SDS011;75314;48.120;11.534;2024-03-08T07:04:19;20.13;;;14.53;;
84997;SDS011;75314;48.120;11.534;2024-03-08T07:06:45;21.57;;;14.67;;
84997;SDS011;75314;48.120;11.534;2024-03-08T07:09:10;21.03;;;15.77;;
84997;SDS011;75314;48.120;11.534;2024-03-08T07:11:35;20.93;;;14.77;;
84997;SDS011;75314;48.120;11.534;2024-03-08T07:14:00;21.67;;;14.70;;
84997;SDS011;75314;48.120;11.534;2024-03-08T07:16:25;21.23;;;14.60;;
84997;SDS011;75314;48.120;11.534;2024-03-08T07:18:50;21.10;;;14.73;;
84997;SDS011;75314;48.120;11.534;2024-03-08T07:21:16;20.10;;;14.97;;
84997;SDS011;75314;48.120;11.534;2024-03-08T07:23:41;21.37;;;14.93;;
84997;SDS011;75314;48.120;11.534;2024-03-08T07:26:06;20.13;;;14.87;;
84997;SDS011;75314;48.120;11.534;2024-03-08T07:28:31;21.40;;;14.77;;
84997;SDS011;75314;48.120;11.534;2024-03-08T07:31:00;22.20;;;15.43;;
84997;SDS011;75314;48.120;11.534;2024-03-08T07:33:25;20.43;;;14.10;;
84997;SDS011;75314;48.120;11.534;2024-03-08T07:35:50;20.03;;;14.50;;
84997;SDS011;75314;48.120;11.534;2024-03-08T07:38:15;20.10;;;14.00;;
84997;SDS011;75314;48.120;11.534;2024-03-08T07:40:41;19.77;;;14.40;;
84997;SDS011;75314;48.120;11.534;2024-03-08T07:43:07;20.23;;;14.50;;
84997;SDS011;75314;48.120;11.534;2024-03-08T07:45:33;19.77;;;15.00;;
84997;SDS011;75314;48.120;11.534;2024-03-08T07:47:58;23.10;;;14.27;;
84997;SDS011;75314;48.120;11.534;2024-03-08T07:50:23;22.27;;;15.53;;
84997;SDS011;75314;48.120;11.534;2024-03-08T07:52:49;20.40;;;14.97;;
84997;SDS011;75314;48.120;11.534;2024-03-08T07:55:14;21.00;;;14.10;;
84997;SDS011;75314;48.120;11.534;2024-03-08T07:57:39;22.33;;;15.97;;
84997;SDS011;75314;48.120;11.534;2024-03-08T08:00:05;18.70;;;13.90;;
84997;SDS011;75314;48.120;11.534;2024-03-08T08:02:30;21.60;;;14.87;;
84997;SDS011;75314;48.120;11.534;2024-03-08T08:04:56;21.80;;;15.20;;
84997;SDS011;75314;48.120;11.534;2024-03-08T08:07:21;22.10;;;15.97;;
84997;SDS011;75314;48.120;11.534;2024-03-08T08:09:46;23.20;;;15.50;;
84997;SDS011;75314;48.120;11.534;2024-03-08T08:12:11;19.20;;;14.07;;
84997;SDS011;75314;48.120;11.534;2024-03-08T08:14:36;20.30;;;14.77;;
84997;SDS011;75314;48.120;11.534;2024-03-08T08:17:01;23.37;;;14.80;;
84997;SDS011;75314;48.120;11.534;2024-03-08T08:19:27;20.47;;;13.97;;
84997;SDS011;75314;48.120;11.534;2024-03-08T08:21:52;22.83;;;15.57;;
84997;SDS011;75314;48.120;11.534;2024-03-08T08:24:17;20.80;;;15.40;;
84997;SDS011;75314;48.120;11.534;2024-03-08T08:26:42;20.87;;;15.20;;
84997;SDS011;75314;48.120;11.534;2024-03-08T08:29:07;23.63;;;15.87;;
84997;SDS011;75314;48.120;11.534;2024-03-08T08:31:33;21.40;;;15.77;;
84997;SDS011;75314;48.120;11.534;2024-03-08T08:33:58;23.27;;;16.50;;
84997;SDS011;75314;48.120;11.534;2024-03-08T08:36:24;21.90;;;14.53;;
84997;SDS011;75314;48.120;11.534;2024-03-08T08:38:49;24.90;;;15.80;;
84997;SDS011;75314;48.120;11.534;2024-03-08T08:41:14;22.00;;;14.97;;
84997;SDS011;75314;48.120;11.534;2024-03-08T08:43:40;24.93;;;15.60;;
84997;SDS011;75314;48.120;11.534;2024-03-08T08:46:05;22.67;;;16.27;;
84997;SDS011;75314;48.120;11.534;2024-03-08T08:48:30;19.13;;;14.10;;
84997;SDS011;75314;48.120;11.534;2024-03-08T08:50:55;21.67;;;14.33;;
84997;SDS011;75314;48.120;11.534;2024-03-08T08:53:20;21.30;;;14.90;;
84997;SDS011;75314;48.120;11.534;2024-03-08T08:55:46;20.07;;;14.47;;
84997;SDS011;75314;48.120;11.534;2024-03-08T08:58:11;19.93;;;14.87;;
84997;SDS011;75314;48.120;11.534;2024-03-08T09:00:36;20.63;;;14.47;;
84997;SDS011;75314;48.120;11.534;2024-03-08T09:03:02;22.40;;;15.63;;
84997;SDS011;75314;48.120;11.534;2024-03-08T09:05:27;23.47;;;15.90;;
84997;SDS011;75314;48.120;11.534;2024-03-08T09:07:52;19.50;;;13.50;;
84997;SDS011;75314;48.120;11.534;2024-03-08T09:10:17;22.43;;;15.20;;
84997;SDS011;75314;48.120;11.534;2024-03-08T09:12:43;21.23;;;14.97;;
84997;SDS011;75314;48.120;11.534;2024-03-08T09:15:08;22.53;;;16.17;;
84997;SDS011;75314;48.120;11.534;2024-03-08T09:17:33;22.87;;;15.50;;
84997;SDS011;75314;48.120;11.534;2024-03-08T09:19:59;23.63;;;14.53;;
84997;SDS011;75314;48.120;11.534;2024-03-08T09:22:24;20.40;;;14.73;;
84997;SDS011;75314;48.120;11.534;2024-03-08T09:24:49;20.23;;;14.87;;
84997;SDS011;75314;48.120;11.534;2024-03-08T09:27:14;18.33;;;13.50;;
84997;SDS011;75314;48.120;11.534;2024-03-08T09:29:39;21.43;;;14.63;;
84997;SDS011;75314;48.120;11.534;2024-03-08T09:32:05;22.00;;;15.77;;
84997;SDS011;75314;48.120;11.534;2024-03-08T09:34:30;21.20;;;14.87;;
84997;SDS011;75314;48.120;11.534;2024-03-08T09:36:55;19.33;;;13.23;;
84997;SDS011;75314;48.120;11.534;2024-03-08T09:39:20;24.13;;;16.40;;
84997;SDS011;75314;48.120;11.534;2024-03-08T09:41:46;22.17;;;15.40;;
84997;SDS011;75314;48.120;11.534;2024-03-08T09:44:11;26.40;;;16.47;;
84997;SDS011;75314;48.120;11.534;2024-03-08T09:46:36;21.63;;;14.17;;
84997;SDS011;75314;48.120;11.534;2024-03-08T09:49:02;20.90;;;14.03;;
84997;SDS011;75314;48.120;11.534;2024-03-08T09:51:28;20.97;;;14.83;;
84997;SDS011;75314;48.120;11.534;2024-03-08T09:53:53;22.13;;;14.73;;
84997;SDS011;75314;48.120;11.534;2024-03-08T09:56:19;20.37;;;14.40;;
84997;SDS011;75314;48.120;11.534;2024-03-08T09:58:44;22.07;;;14.37;;
84997;SDS011;75314;48.120;11.534;2024-03-08T10:01:10;20.77;;;14.03;;
84997;SDS011;75314;48.120;11.534;2024-03-08T10:03:35;24.87;;;15.47;;
84997;SDS011;75314;48.120;11.534;2024-03-08T10:06:00;24.17;;;17.10;;
84997;SDS011;75314;48.120;11.534;2024-03-08T10:08:26;26.00;;;16.17;;
84997;SDS011;75314;48.120;11.534;2024-03-08T10:10:57;24.30;;;15.73;;
84997;SDS011;75314;48.120;11.534;2024-03-08T10:13:24;20.37;;;14.70;;
84997;SDS011;75314;48.120;11.534;2024-03-08T10:15:50;22.70;;;14.67;;
84997;SDS011;75314;48.120;11.534;2024-03-08T10:18:15;21.23;;;15.27;;
84997;SDS011;75314;48.120;11.534;2024-03-08T10:20:41;22.57;;;15.73;;
84997;SDS011;75314;48.120;11.534;2024-03-08T10:23:06;21.47;;;14.70;;
84997;SDS011;75314;48.120;11.534;2024-03-08T10:25:31;20.60;;;13.83;;
84997;SDS011;75314;48.120;11.534;2024-03-08T10:27:57;19.83;;;14.20;;
84997;SDS011;75314;48.120;11.534;2024-03-08T10:30:22;21.13;;;15.47;;
84997;SDS011;75314;48.120;11.534;2024-03-08T10:32:47;21.60;;;15.33;;
84997;SDS011;75314;48.120;11.534;2024-03-08T10:35:13;19.93;;;13.90;;
84997;SDS011;75314;48.120;11.534;2024-03-08T10:37:45;23.23;;;14.17;;
84997;SDS011;75314;48.120;11.534;2024-03-08T10:40:13;20.63;;;14.10;;
84997;SDS011;75314;48.120;11.534;2024-03-08T10:42:52;21.00;;;14.40;;
84997;SDS011;75314;48.120;11.534;2024-03-08T10:45:31;20.63;;;14.40;;
84997;SDS011;75314;48.120;11.534;2024-03-08T10:50:37;20.27;;;13.80;;
84997;SDS011;75314;48.120;11.534;2024-03-08T10:53:03;21.17;;;14.87;;
84997;SDS011;75314;48.120;11.534;2024-03-08T10:55:30;21.00;;;14.20;;
84997;SDS011;75314;48.120;11.534;2024-03-08T10:57:56;18.27;;;12.43;;
84997;SDS011;75314;48.120;11.534;2024-03-08T11:00:21;19.47;;;14.07;;
84997;SDS011;75314;48.120;11.534;2024-03-08T11:02:47;21.30;;;14.00;;
84997;SDS011;75314;48.120;11.534;2024-03-08T11:05:31;18.60;;;13.00;;
84997;SDS011;75314;48.120;11.534;2024-03-08T11:08:05;17.60;;;12.63;;
84997;SDS011;75314;48.120;11.534;2024-03-08T11:10:33;17.33;;;12.23;;
84997;SDS011;75314;48.120;11.534;2024-03-08T11:12:58;16.90;;;12.00;;
84997;SDS011;75314;48.120;11.534;2024-03-08T11:15:23;16.43;;;11.97;;
84997;SDS011;75314;48.120;11.534;2024-03-08T11:17:49;18.00;;;13.30;;
84997;SDS011;75314;48.120;11.534;2024-03-08T11:20:16;18.33;;;13.20;;
84997;SDS011;75314;48.120;11.534;2024-03-08T11:22:42;17.33;;;12.90;;
84997;SDS011;75314;48.120;11.534;2024-03-08T11:25:33;18.37;;;12.73;;
84997;SDS011;75314;48.120;11.534;2024-03-08T11:28:06;19.13;;;13.47;;
84997;SDS011;75314;48.120;11.534;2024-03-08T11:30:38;17.40;;;12.47;;
84997;SDS011;75314;48.120;11.534;2024-03-08T11:33:03;17.97;;;12.90;;
84997;SDS011;75314;48.120;11.534;2024-03-08T11:35:29;20.63;;;14.37;;
84997;SDS011;75314;48.120;11.534;2024-03-08T11:37:54;21.90;;;14.30;;
84997;SDS011;75314;48.120;11.534;2024-03-08T11:40:19;19.33;;;13.63;;
84997;SDS011;75314;48.120;11.534;2024-03-08T11:42:45;21.73;;;13.27;;
84997;SDS011;75314;48.120;11.534;2024-03-08T11:45:10;19.13;;;12.80;;
84997;SDS011;75314;48.120;11.534;2024-03-08T11:47:36;19.53;;;13.20;;
84997;SDS011;75314;48.120;11.534;2024-03-08T11:50:01;18.20;;;13.50;;
84997;SDS011;75314;48.120;11.534;2024-03-08T11:52:26;20.27;;;12.63;;
84997;SDS011;75314;48.120;11.534;2024-03-08T11:54:52;17.07;;;12.30;;
84997;SDS011;75314;48.120;11.534;2024-03-08T11:57:18;18.67;;;12.60;;
84997;SDS011;75314;48.120;11.534;2024-03-08T11:59:49;16.20;;;12.17;;
84997;SDS011;75314;48.120;11.534;2024-03-08T12:02:15;18.37;;;13.13;;
84997;SDS011;75314;48.120;11.534;2024-03-08T12:04:40;16.63;;;12.17;;
84997;SDS011;75314;48.120;11.534;2024-03-08T12:07:06;17.07;;;12.47;;
84997;SDS011;75314;48.120;11.534;2024-03-08T12:09:37;19.87;;;13.63;;
84997;SDS011;75314;48.120;11.534;2024-03-08T12:12:03;18.43;;;13.03;;
84997;SDS011;75314;48.120;11.534;2024-03-08T12:14:29;18.07;;;12.77;;
84997;SDS011;75314;48.120;11.534;2024-03-08T12:16:54;16.40;;;12.40;;
84997;SDS011;75314;48.120;11.534;2024-03-08T12:19:19;19.30;;;12.83;;
84997;SDS011;75314;48.120;11.534;2024-03-08T12:21:45;18.83;;;13.27;;
84997;SDS011;75314;48.120;11.534;2024-03-08T12:24:10;18.03;;;13.10;;
84997;SDS011;75314;48.120;11.534;2024-03-08T12:26:36;18.40;;;13.23;;
84997;SDS011;75314;48.120;11.534;2024-03-08T12:29:14;18.90;;;14.50;;
84997;SDS011;75314;48.120;11.534;2024-03-08T12:31:40;20.70;;;13.63;;
84997;SDS011;75314;48.120;11.534;2024-03-08T12:34:07;17.53;;;12.87;;
84997;SDS011;75314;48.120;11.534;2024-03-08T12:36:32;16.10;;;12.10;;
84997;SDS011;75314;48.120;11.534;2024-03-08T12:38:57;18.93;;;13.47;;
84997;SDS011;75314;48.120;11.534;2024-03-08T12:41:23;19.17;;;13.27;;
84997;SDS011;75314;48.120;11.534;2024-03-08T12:43:49;16.67;;;12.10;;
84997;SDS011;75314;48.120;11.534;2024-03-08T12:46:14;18.50;;;13.27;;
84997;SDS011;75314;48.120;11.534;2024-03-08T12:48:43;17.10;;;12.50;;
84997;SDS011;75314;48.120;11.534;2024-03-08T12:51:08;17.00;;;12.07;;
84997;SDS011;75314;48.120;11.534;2024-03-08T12:53:34;15.93;;;12.53;;
84997;SDS011;75314;48.120;11.534;2024-03-08T12:55:59;17.70;;;13.03;;
84997;SDS011;75314;48.120;11.534;2024-03-08T12:58:25;17.97;;;13.27;;
84997;SDS011;75314;48.120;11.534;2024-03-08T13:00:50;19.47;;;13.23;;
84997;SDS011;75314;48.120;11.534;2024-03-08T13:03:15;17.77;;;12.40;;
84997;SDS011;75314;48.120;11.534;2024-03-08T13:05:40;19.70;;;12.80;;
84997;SDS011;75314;48.120;11.534;2024-03-08T13:08:06;16.43;;;12.23;;
84997;SDS011;75314;48.120;11.534;2024-03-08T13:10:31;19.30;;;12.87;;
84997;SDS011;75314;48.120;11.534;2024-03-08T13:12:57;16.63;;;12.40;;
84997;SDS011;75314;48.120;11.534;2024-03-08T13:15:22;19.23;;;12.97;;
84997;SDS011;75314;48.120;11.534;2024-03-08T13:17:47;18.87;;;13.30;;
84997;SDS011;75314;48.120;11.534;2024-03-08T13:20:13;17.73;;;13.27;;
84997;SDS011;75314;48.120;11.534;2024-03-08T13:22:38;18.53;;;12.63;;
84997;SDS011;75314;48.120;11.534;2024-03-08T13:25:03;16.57;;;12.23;;
84997;SDS011;75314;48.120;11.534;2024-03-08T13:27:29;18.23;;;13.30;;
84997;SDS011;75314;48.120;11.534;2024-03-08T13:29:54;18.27;;;12.53;;
84997;SDS011;75314;48.120;11.534;2024-03-08T13:32:19;18.13;;;12.83;;
84997;SDS011;75314;48.120;11.534;2024-03-08T13:34:44;17.70;;;12.17;;
84997;SDS011;75314;48.120;11.534;2024-03-08T13:37:10;16.80;;;12.40;;
84997;SDS011;75314;48.120;11.534;2024-03-08T13:39:35;15.00;;;11.97;;
84997;SDS011;75314;48.120;11.534;2024-03-08T13:42:01;17.90;;;12.07;;
84997;SDS011;75314;48.120;11.534;2024-03-08T13:44:26;15.70;;;11.57;;
84997;SDS011;75314;48.120;11.534;2024-03-08T13:46:51;17.03;;;11.43;;
84997;SDS011;75314;48.120;11.534;2024-03-08T13:49:16;15.47;;;11.23;;
84997;SDS011;75314;48.120;11.534;2024-03-08T13:51:42;16.20;;;11.77;;
84997;SDS011;75314;48.120;11.534;2024-03-08T13:54:07;16.73;;;12.77;;
84997;SDS011;75314;48.120;11.534;2024-03-08T13:56:32;21.03;;;14.10;;
84997;SDS011;75314;48.120;11.534;2024-03-08T13:58:57;17.60;;;12.67;;
84997;SDS011;75314;48.120;11.534;2024-03-08T14:01:23;19.13;;;13.10;;